createdAt,value
2022-10-07T11:13:00.000Z,49.206543
2022-10-07T11:13:21.000Z,49.908447
2022-10-07T11:13:41.000Z,50.384521
2022-10-07T11:14:02.000Z,49.578857
2022-10-07T11:14:22.000Z,48.980713
2022-10-07T11:14:43.000Z,48.376465
2022-10-07T11:15:03.000Z,48.254395
2022-10-07T11:15:23.000Z,48.254395
2022-10-07T11:15:44.000Z,47.351074
2022-10-07T11:16:04.000Z,47.851562
2022-10-07T11:16:24.000Z,49.035645
2022-10-07T11:16:45.000Z,48.333740
2022-10-07T11:17:05.000Z,47.631836
2022-10-07T11:17:25.000Z,46.929932
2022-10-07T11:17:46.000Z,46.728516
2022-10-07T11:18:06.000Z,46.826172
2022-10-07T11:18:26.000Z,46.826172
2022-10-07T11:18:46.000Z,46.325684
2022-10-07T11:19:07.000Z,45.324707
2022-10-07T11:19:28.000Z,46.044922
2022-10-07T11:19:48.000Z,45.947266
2022-10-07T11:20:08.000Z,46.246338
2022-10-07T11:20:29.000Z,46.148682
2022-10-07T11:20:49.000Z,46.246338
2022-10-07T11:21:09.000Z,46.771240
2022-10-07T11:21:30.000Z,45.965576
2022-10-07T11:21:51.000Z,46.673584
2022-10-07T11:22:13.000Z,46.771240
2022-10-07T11:22:34.000Z,46.673584
2022-10-07T11:22:54.000Z,46.868896
2022-10-07T11:23:14.000Z,46.472168
2022-10-07T11:23:35.000Z,46.771240
2022-10-07T11:23:55.000Z,46.972656
2022-10-07T11:24:15.000Z,47.271729
2022-10-07T11:24:37.000Z,47.552490
2022-10-07T11:24:57.000Z,47.052002
2022-10-07T11:25:18.000Z,46.551514
2022-10-07T11:25:38.000Z,46.148682
2022-10-07T11:25:59.000Z,45.544434
2022-10-07T11:26:19.000Z,45.446777
2022-10-07T11:26:39.000Z,45.343018
2022-10-07T11:27:00.000Z,45.141602
2022-10-07T11:27:21.000Z,45.343018
2022-10-07T11:27:41.000Z,45.648193
2022-10-07T11:28:02.000Z,45.245361
2022-10-07T11:28:22.000Z,45.422363
2022-10-07T11:28:42.000Z,45.123291
2022-10-07T11:29:02.000Z,44.421387
2022-10-07T11:29:23.000Z,44.122314
2022-10-07T11:29:43.000Z,44.519043
2022-10-07T11:30:04.000Z,45.001221
2022-10-07T11:30:25.000Z,44.598389
2022-10-07T11:30:45.000Z,44.598389
2022-10-07T11:31:05.000Z,44.702148
2022-10-07T11:31:26.000Z,44.396973
2022-10-07T11:31:46.000Z,43.695068
2022-10-07T11:32:06.000Z,43.597412
2022-10-07T11:32:27.000Z,43.695068
2022-10-07T11:32:47.000Z,43.298340
2022-10-07T11:33:08.000Z,43.194580
2022-10-07T11:33:28.000Z,43.695068
2022-10-07T11:33:49.000Z,44.000244
2022-10-07T11:34:09.000Z,44.097900
2022-10-07T11:34:29.000Z,44.396973
2022-10-07T11:34:50.000Z,44.299316
2022-10-07T11:35:10.000Z,44.500732
2022-10-07T11:35:30.000Z,44.201660
2022-10-07T11:35:52.000Z,44.500732
2022-10-07T11:36:12.000Z,44.702148
2022-10-07T11:36:33.000Z,45.202637
2022-10-07T15:57:30.000Z,43.377686
2022-10-07T15:57:50.000Z,43.902588
2022-10-07T15:58:11.000Z,44.104004
2022-10-07T15:58:33.000Z,44.104004
2022-10-07T15:58:53.000Z,44.525146
2022-10-07T15:59:14.000Z,44.830322
2022-10-07T15:59:34.000Z,44.628906
2022-10-07T15:59:54.000Z,44.952393
2022-10-07T16:00:15.000Z,45.349121
2022-10-07T16:00:35.000Z,45.452881
2022-10-07T16:00:55.000Z,45.251465
2022-10-07T16:01:16.000Z,45.373535
2022-10-07T16:01:36.000Z,45.672607
2022-10-07T16:01:56.000Z,45.574951
2022-10-07T16:02:17.000Z,45.874023
2022-10-07T16:02:38.000Z,46.398926
2022-10-07T16:02:58.000Z,46.600342
2022-10-07T16:03:18.000Z,46.801758
2022-10-07T16:03:39.000Z,46.801758
2022-10-07T16:03:59.000Z,47.912598
2022-10-07T16:04:20.000Z,47.631836
2022-10-07T16:04:41.000Z,47.735596
2022-10-07T16:05:01.000Z,47.833252
2022-10-07T16:05:21.000Z,47.735596
2022-10-07T16:05:42.000Z,47.735596
2022-10-07T16:06:03.000Z,48.156738
2022-10-07T16:06:23.000Z,48.260498
2022-10-07T16:06:43.000Z,48.358154
2022-10-07T16:07:04.000Z,49.768066
2022-10-07T16:07:25.000Z,50.274658
2022-10-07T16:07:47.000Z,50.097656
2022-10-07T16:08:07.000Z,49.291992
2022-10-07T16:08:27.000Z,48.687744
2022-10-07T16:08:48.000Z,48.181152
2022-10-07T16:09:08.000Z,48.181152
2022-10-07T16:09:29.000Z,48.809814
2022-10-07T16:09:49.000Z,49.212646
2022-10-07T16:10:09.000Z,48.809814
2022-10-07T16:10:30.000Z,48.809814
2022-10-07T16:10:50.000Z,49.011230
2022-10-07T16:11:10.000Z,48.907471
2022-10-07T16:11:31.000Z,50.622559
2022-10-07T16:11:53.000Z,51.330566
2022-10-07T16:12:14.000Z,52.239990
2022-10-07T16:12:35.000Z,52.264404
2022-10-07T16:12:55.000Z,52.563477
2022-10-07T16:13:16.000Z,52.868652
2022-10-07T16:13:37.000Z,52.362061
2022-10-07T16:13:58.000Z,51.885986
2022-10-07T16:14:18.000Z,52.386475
2022-10-07T16:14:38.000Z,53.900146
2022-10-07T16:14:59.000Z,53.900146
2022-10-07T16:15:19.000Z,53.424072
2022-10-07T16:15:39.000Z,53.930664
2022-10-07T16:16:00.000Z,53.930664
2022-10-07T16:16:21.000Z,53.247070
2022-10-07T16:16:41.000Z,53.045654
2022-10-07T16:17:02.000Z,53.045654
2022-10-07T16:17:22.000Z,53.045654
2022-10-07T16:17:42.000Z,52.941895
2022-10-07T16:18:03.000Z,52.636719
2022-10-07T16:18:24.000Z,52.258301
2022-10-07T16:18:44.000Z,52.160645
2022-10-07T16:19:05.000Z,51.757812
2022-10-07T16:19:25.000Z,51.959229
2022-10-07T16:19:46.000Z,51.550293
2022-10-07T16:20:06.000Z,51.251221
2022-10-07T16:20:26.000Z,51.348877
2022-10-07T16:20:46.000Z,50.823975
2022-10-07T16:21:07.000Z,51.226807
2022-10-07T16:21:27.000Z,51.525879
2022-10-07T16:21:47.000Z,51.629639
2022-10-07T16:22:08.000Z,51.733398
2022-10-07T16:22:28.000Z,52.435303
